sensor_id;sensor_type;location;lat;lon;timestamp;P1;durP1;ratioP1;P2;durP2;ratioP2
43580;SDS011;29175;51.030;4.606;2023-04-29T00:00:48;86.90;;;29.27;;
43580;SDS011;29175;51.030;4.606;2023-04-29T00:03:14;87.65;;;28.73;;
43580;SDS011;29175;51.030;4.606;2023-04-29T00:05:41;83.82;;;29.45;;
43580;SDS011;29175;51.030;4.606;2023-04-29T00:08:07;91.82;;;30.35;;
43580;SDS011;29175;51.030;4.606;2023-04-29T00:10:32;90.15;;;30.70;;
43580;SDS011;29175;51.030;4.606;2023-04-29T00:12:59;92.00;;;31.23;;
43580;SDS011;29175;51.030;4.606;2023-04-29T00:15:25;95.25;;;32.38;;
43580;SDS011;29175;51.030;4.606;2023-04-29T00:17:51;105.63;;;31.38;;
43580;SDS011;29175;51.030;4.606;2023-04-29T00:20:17;92.05;;;32.28;;
43580;SDS011;29175;51.030;4.606;2023-04-29T00:22:44;103.35;;;33.22;;
43580;SDS011;29175;51.030;4.606;2023-04-29T00:25:09;99.57;;;34.85;;
43580;SDS011;29175;51.030;4.606;2023-04-29T00:27:36;99.47;;;33.63;;
43580;SDS011;29175;51.030;4.606;2023-04-29T00:30:03;102.38;;;32.85;;
43580;SDS011;29175;51.030;4.606;2023-04-29T00:32:31;97.78;;;31.73;;
43580;SDS011;29175;51.030;4.606;2023-04-29T00:34:56;105.50;;;31.83;;
43580;SDS011;29175;51.030;4.606;2023-04-29T00:37:22;96.80;;;31.90;;
43580;SDS011;29175;51.030;4.606;2023-04-29T00:39:48;87.95;;;30.33;;
43580;SDS011;29175;51.030;4.606;2023-04-29T00:42:14;98.32;;;31.10;;
43580;SDS011;29175;51.030;4.606;2023-04-29T00:44:40;100.13;;;32.25;;
43580;SDS011;29175;51.030;4.606;2023-04-29T00:47:06;91.88;;;32.20;;
43580;SDS011;29175;51.030;4.606;2023-04-29T00:49:36;99.32;;;32.83;;
43580;SDS011;29175;51.030;4.606;2023-04-29T00:52:03;95.55;;;32.47;;
43580;SDS011;29175;51.030;4.606;2023-04-29T00:54:32;101.97;;;33.22;;
43580;SDS011;29175;51.030;4.606;2023-04-29T00:57:00;115.00;;;33.55;;
43580;SDS011;29175;51.030;4.606;2023-04-29T00:59:27;95.38;;;31.70;;
43580;SDS011;29175;51.030;4.606;2023-04-29T01:02:05;100.30;;;32.20;;
43580;SDS011;29175;51.030;4.606;2023-04-29T01:04:31;96.65;;;31.85;;
43580;SDS011;29175;51.030;4.606;2023-04-29T01:07:00;91.45;;;29.20;;
43580;SDS011;29175;51.030;4.606;2023-04-29T01:09:53;82.53;;;28.30;;
43580;SDS011;29175;51.030;4.606;2023-04-29T01:12:42;83.82;;;29.08;;
43580;SDS011;29175;51.030;4.606;2023-04-29T01:15:19;86.45;;;30.52;;
43580;SDS011;29175;51.030;4.606;2023-04-29T01:20:31;95.18;;;32.05;;
43580;SDS011;29175;51.030;4.606;2023-04-29T01:22:58;91.82;;;30.48;;
43580;SDS011;29175;51.030;4.606;2023-04-29T01:25:24;84.07;;;30.98;;
43580;SDS011;29175;51.030;4.606;2023-04-29T01:27:54;77.38;;;28.17;;
43580;SDS011;29175;51.030;4.606;2023-04-29T01:30:43;76.07;;;27.65;;
43580;SDS011;29175;51.030;4.606;2023-04-29T01:36:36;68.32;;;23.65;;
43580;SDS011;29175;51.030;4.606;2023-04-29T01:39:08;80.30;;;25.92;;
43580;SDS011;29175;51.030;4.606;2023-04-29T01:41:56;64.38;;;23.33;;
43580;SDS011;29175;51.030;4.606;2023-04-29T01:46:56;71.88;;;23.30;;
43580;SDS011;29175;51.030;4.606;2023-04-29T01:49:25;64.78;;;23.05;;
43580;SDS011;29175;51.030;4.606;2023-04-29T01:51:52;73.78;;;23.42;;
43580;SDS011;29175;51.030;4.606;2023-04-29T01:54:18;69.53;;;24.08;;
43580;SDS011;29175;51.030;4.606;2023-04-29T01:56:45;61.45;;;22.92;;
43580;SDS011;29175;51.030;4.606;2023-04-29T01:59:10;65.35;;;22.88;;
43580;SDS011;29175;51.030;4.606;2023-04-29T02:01:36;69.97;;;26.23;;
43580;SDS011;29175;51.030;4.606;2023-04-29T02:04:02;73.40;;;26.80;;
43580;SDS011;29175;51.030;4.606;2023-04-29T02:06:29;76.88;;;27.08;;
43580;SDS011;29175;51.030;4.606;2023-04-29T02:08:58;66.53;;;25.58;;
43580;SDS011;29175;51.030;4.606;2023-04-29T02:11:23;76.18;;;25.55;;
43580;SDS011;29175;51.030;4.606;2023-04-29T02:13:49;70.43;;;26.02;;
43580;SDS011;29175;51.030;4.606;2023-04-29T02:16:15;63.17;;;24.33;;
43580;SDS011;29175;51.030;4.606;2023-04-29T02:18:41;69.55;;;25.20;;
43580;SDS011;29175;51.030;4.606;2023-04-29T02:21:07;64.07;;;24.70;;
43580;SDS011;29175;51.030;4.606;2023-04-29T02:23:33;55.60;;;23.30;;
43580;SDS011;29175;51.030;4.606;2023-04-29T02:26:00;54.50;;;22.95;;
43580;SDS011;29175;51.030;4.606;2023-04-29T02:28:26;54.88;;;22.52;;
43580;SDS011;29175;51.030;4.606;2023-04-29T02:30:52;62.28;;;22.73;;
43580;SDS011;29175;51.030;4.606;2023-04-29T02:33:18;56.92;;;22.33;;
43580;SDS011;29175;51.030;4.606;2023-04-29T02:35:44;57.15;;;21.52;;
43580;SDS011;29175;51.030;4.606;2023-04-29T02:38:10;52.72;;;22.08;;
43580;SDS011;29175;51.030;4.606;2023-04-29T02:40:43;61.42;;;20.83;;
43580;SDS011;29175;51.030;4.606;2023-04-29T02:43:10;56.58;;;20.15;;
43580;SDS011;29175;51.030;4.606;2023-04-29T02:45:36;67.22;;;24.63;;
43580;SDS011;29175;51.030;4.606;2023-04-29T02:48:03;68.40;;;21.77;;
43580;SDS011;29175;51.030;4.606;2023-04-29T02:50:29;47.15;;;20.52;;
43580;SDS011;29175;51.030;4.606;2023-04-29T02:52:55;53.42;;;20.20;;
43580;SDS011;29175;51.030;4.606;2023-04-29T02:55:21;51.45;;;21.23;;
43580;SDS011;29175;51.030;4.606;2023-04-29T02:57:47;52.83;;;21.08;;
43580;SDS011;29175;51.030;4.606;2023-04-29T03:00:13;56.75;;;22.08;;
43580;SDS011;29175;51.030;4.606;2023-04-29T03:02:39;59.00;;;22.58;;
43580;SDS011;29175;51.030;4.606;2023-04-29T03:05:05;59.10;;;23.20;;
43580;SDS011;29175;51.030;4.606;2023-04-29T03:07:31;56.13;;;22.25;;
43580;SDS011;29175;51.030;4.606;2023-04-29T03:09:57;56.40;;;23.27;;
43580;SDS011;29175;51.030;4.606;2023-04-29T03:12:23;57.17;;;21.75;;
43580;SDS011;29175;51.030;4.606;2023-04-29T03:14:49;51.53;;;21.10;;
43580;SDS011;29175;51.030;4.606;2023-04-29T03:17:16;59.20;;;22.75;;
43580;SDS011;29175;51.030;4.606;2023-04-29T03:19:42;75.70;;;25.13;;
43580;SDS011;29175;51.030;4.606;2023-04-29T03:22:08;74.35;;;25.80;;
43580;SDS011;29175;51.030;4.606;2023-04-29T03:24:37;74.40;;;27.55;;
43580;SDS011;29175;51.030;4.606;2023-04-29T03:27:03;81.35;;;28.95;;
43580;SDS011;29175;51.030;4.606;2023-04-29T03:29:30;85.38;;;26.42;;
43580;SDS011;29175;51.030;4.606;2023-04-29T03:31:56;81.97;;;27.17;;
43580;SDS011;29175;51.030;4.606;2023-04-29T03:34:22;83.80;;;30.15;;
43580;SDS011;29175;51.030;4.606;2023-04-29T03:36:48;84.70;;;28.13;;
43580;SDS011;29175;51.030;4.606;2023-04-29T03:39:15;81.72;;;28.27;;
43580;SDS011;29175;51.030;4.606;2023-04-29T03:41:42;100.88;;;32.80;;
43580;SDS011;29175;51.030;4.606;2023-04-29T03:44:08;88.03;;;32.55;;
43580;SDS011;29175;51.030;4.606;2023-04-29T03:46:34;92.68;;;34.03;;
43580;SDS011;29175;51.030;4.606;2023-04-29T03:48:59;101.00;;;32.30;;
43580;SDS011;29175;51.030;4.606;2023-04-29T03:51:25;90.80;;;30.75;;
43580;SDS011;29175;51.030;4.606;2023-04-29T03:53:52;98.28;;;30.42;;
43580;SDS011;29175;51.030;4.606;2023-04-29T03:56:20;91.85;;;30.52;;
43580;SDS011;29175;51.030;4.606;2023-04-29T03:58:47;94.35;;;32.67;;
43580;SDS011;29175;51.030;4.606;2023-04-29T04:01:13;105.60;;;32.08;;
43580;SDS011;29175;51.030;4.606;2023-04-29T04:03:39;96.20;;;32.25;;
43580;SDS011;29175;51.030;4.606;2023-04-29T04:06:07;99.90;;;33.85;;
43580;SDS011;29175;51.030;4.606;2023-04-29T04:08:33;102.57;;;33.33;;
43580;SDS011;29175;51.030;4.606;2023-04-29T04:10:59;96.70;;;31.10;;
43580;SDS011;29175;51.030;4.606;2023-04-29T04:13:30;92.43;;;29.52;;
43580;SDS011;29175;51.030;4.606;2023-04-29T04:15:56;85.25;;;30.73;;
43580;SDS011;29175;51.030;4.606;2023-04-29T04:18:22;79.20;;;28.13;;
43580;SDS011;29175;51.030;4.606;2023-04-29T04:20:48;86.88;;;30.33;;
43580;SDS011;29175;51.030;4.606;2023-04-29T04:23:14;80.70;;;29.60;;
43580;SDS011;29175;51.030;4.606;2023-04-29T04:25:46;85.63;;;29.70;;
43580;SDS011;29175;51.030;4.606;2023-04-29T04:28:12;82.65;;;28.42;;
43580;SDS011;29175;51.030;4.606;2023-04-29T04:30:38;92.20;;;30.63;;
43580;SDS011;29175;51.030;4.606;2023-04-29T04:33:04;90.45;;;29.52;;
43580;SDS011;29175;51.030;4.606;2023-04-29T04:35:30;89.93;;;30.00;;
43580;SDS011;29175;51.030;4.606;2023-04-29T04:37:56;78.75;;;28.25;;
43580;SDS011;29175;51.030;4.606;2023-04-29T04:40:23;79.13;;;27.95;;
43580;SDS011;29175;51.030;4.606;2023-04-29T04:42:49;82.68;;;28.50;;
43580;SDS011;29175;51.030;4.606;2023-04-29T04:45:14;77.47;;;28.58;;
43580;SDS011;29175;51.030;4.606;2023-04-29T04:47:40;81.88;;;27.75;;
43580;SDS011;29175;51.030;4.606;2023-04-29T04:50:07;84.18;;;28.67;;
43580;SDS011;29175;51.030;4.606;2023-04-29T04:52:33;82.97;;;29.42;;
43580;SDS011;29175;51.030;4.606;2023-04-29T04:54:59;79.55;;;29.75;;
43580;SDS011;29175;51.030;4.606;2023-04-29T04:57:25;75.47;;;29.02;;
43580;SDS011;29175;51.030;4.606;2023-04-29T04:59:51;77.50;;;29.42;;
43580;SDS011;29175;51.030;4.606;2023-04-29T05:02:17;76.63;;;29.88;;
43580;SDS011;29175;51.030;4.606;2023-04-29T05:04:43;73.20;;;28.98;;
43580;SDS011;29175;51.030;4.606;2023-04-29T05:07:09;84.55;;;30.25;;
43580;SDS011;29175;51.030;4.606;2023-04-29T05:09:35;80.20;;;29.63;;
43580;SDS011;29175;51.030;4.606;2023-04-29T05:12:01;88.15;;;29.33;;
43580;SDS011;29175;51.030;4.606;2023-04-29T05:14:27;78.63;;;28.58;;
43580;SDS011;29175;51.030;4.606;2023-04-29T05:16:57;75.90;;;28.08;;
43580;SDS011;29175;51.030;4.606;2023-04-29T05:19:23;82.55;;;29.15;;
43580;SDS011;29175;51.030;4.606;2023-04-29T05:21:49;81.55;;;29.40;;
43580;SDS011;29175;51.030;4.606;2023-04-29T05:24:16;75.03;;;26.73;;
43580;SDS011;29175;51.030;4.606;2023-04-29T05:26:42;71.80;;;26.00;;
43580;SDS011;29175;51.030;4.606;2023-04-29T05:29:08;77.95;;;25.02;;
43580;SDS011;29175;51.030;4.606;2023-04-29T05:31:35;66.65;;;25.45;;
43580;SDS011;29175;51.030;4.606;2023-04-29T05:34:01;77.18;;;27.73;;
43580;SDS011;29175;51.030;4.606;2023-04-29T05:36:27;69.50;;;25.73;;
43580;SDS011;29175;51.030;4.606;2023-04-29T05:38:53;57.65;;;24.40;;
43580;SDS011;29175;51.030;4.606;2023-04-29T05:41:19;70.85;;;24.95;;
43580;SDS011;29175;51.030;4.606;2023-04-29T05:43:45;67.35;;;26.75;;
43580;SDS011;29175;51.030;4.606;2023-04-29T05:46:11;72.63;;;27.13;;
43580;SDS011;29175;51.030;4.606;2023-04-29T05:48:36;67.80;;;23.90;;
43580;SDS011;29175;51.030;4.606;2023-04-29T05:51:03;72.43;;;25.90;;
43580;SDS011;29175;51.030;4.606;2023-04-29T05:53:28;72.40;;;26.23;;
43580;SDS011;29175;51.030;4.606;2023-04-29T05:55:55;62.92;;;24.65;;
43580;SDS011;29175;51.030;4.606;2023-04-29T05:58:21;68.93;;;25.52;;
43580;SDS011;29175;51.030;4.606;2023-04-29T06:00:47;62.70;;;24.42;;
43580;SDS011;29175;51.030;4.606;2023-04-29T06:03:13;65.57;;;23.70;;
43580;SDS011;29175;51.030;4.606;2023-04-29T06:05:39;62.42;;;23.65;;
43580;SDS011;29175;51.030;4.606;2023-04-29T06:08:05;71.45;;;25.45;;
43580;SDS011;29175;51.030;4.606;2023-04-29T06:10:31;67.00;;;24.00;;
43580;SDS011;29175;51.030;4.606;2023-04-29T06:12:58;61.17;;;24.33;;
43580;SDS011;29175;51.030;4.606;2023-04-29T06:15:24;59.08;;;23.75;;
43580;SDS011;29175;51.030;4.606;2023-04-29T06:17:49;67.95;;;25.33;;
43580;SDS011;29175;51.030;4.606;2023-04-29T06:20:16;60.40;;;23.40;;
43580;SDS011;29175;51.030;4.606;2023-04-29T06:22:41;60.38;;;24.70;;
43580;SDS011;29175;51.030;4.606;2023-04-29T06:25:07;55.88;;;23.75;;
43580;SDS011;29175;51.030;4.606;2023-04-29T06:27:34;62.90;;;23.70;;
43580;SDS011;29175;51.030;4.606;2023-04-29T06:30:00;62.70;;;24.60;;
43580;SDS011;29175;51.030;4.606;2023-04-29T06:32:25;70.40;;;25.10;;
43580;SDS011;29175;51.030;4.606;2023-04-29T06:34:51;61.50;;;23.80;;
43580;SDS011;29175;51.030;4.606;2023-04-29T06:37:17;58.70;;;22.88;;
43580;SDS011;29175;51.030;4.606;2023-04-29T06:39:43;70.30;;;25.30;;
43580;SDS011;29175;51.030;4.606;2023-04-29T06:42:08;72.03;;;26.27;;
43580;SDS011;29175;51.030;4.606;2023-04-29T06:44:34;70.90;;;26.55;;
43580;SDS011;29175;51.030;4.606;2023-04-29T06:47:00;61.35;;;24.33;;
43580;SDS011;29175;51.030;4.606;2023-04-29T06:49:26;62.42;;;24.40;;
43580;SDS011;29175;51.030;4.606;2023-04-29T06:51:52;59.58;;;23.80;;
43580;SDS011;29175;51.030;4.606;2023-04-29T06:54:18;70.20;;;25.15;;
43580;SDS011;29175;51.030;4.606;2023-04-29T06:56:43;65.05;;;25.65;;
43580;SDS011;29175;51.030;4.606;2023-04-29T06:59:09;61.15;;;24.95;;
43580;SDS011;29175;51.030;4.606;2023-04-29T07:01:36;64.20;;;24.17;;
43580;SDS011;29175;51.030;4.606;2023-04-29T07:04:03;60.33;;;23.95;;
43580;SDS011;29175;51.030;4.606;2023-04-29T07:06:29;61.17;;;23.85;;
43580;SDS011;29175;51.030;4.606;2023-04-29T07:08:54;63.92;;;23.77;;
43580;SDS011;29175;51.030;4.606;2023-04-29T07:11:20;60.33;;;26.13;;
43580;SDS011;29175;51.030;4.606;2023-04-29T07:13:48;64.82;;;24.30;;
43580;SDS011;29175;51.030;4.606;2023-04-29T07:16:18;66.13;;;24.52;;
43580;SDS011;29175;51.030;4.606;2023-04-29T07:18:50;65.22;;;25.85;;
43580;SDS011;29175;51.030;4.606;2023-04-29T07:21:19;74.60;;;26.67;;
43580;SDS011;29175;51.030;4.606;2023-04-29T07:23:45;69.00;;;26.13;;
43580;SDS011;29175;51.030;4.606;2023-04-29T07:26:11;78.18;;;28.60;;
43580;SDS011;29175;51.030;4.606;2023-04-29T07:28:37;80.80;;;27.63;;
43580;SDS011;29175;51.030;4.606;2023-04-29T07:31:03;76.22;;;27.48;;
43580;SDS011;29175;51.030;4.606;2023-04-29T07:33:30;63.47;;;27.70;;
43580;SDS011;29175;51.030;4.606;2023-04-29T07:35:56;75.18;;;28.65;;
43580;SDS011;29175;51.030;4.606;2023-04-29T07:38:21;74.50;;;26.27;;
43580;SDS011;29175;51.030;4.606;2023-04-29T07:40:47;71.40;;;25.63;;
43580;SDS011;29175;51.030;4.606;2023-04-29T07:43:13;65.65;;;25.20;;
43580;SDS011;29175;51.030;4.606;2023-04-29T07:45:38;62.47;;;24.23;;
43580;SDS011;29175;51.030;4.606;2023-04-29T07:48:04;55.78;;;22.63;;
43580;SDS011;29175;51.030;4.606;2023-04-29T07:50:33;65.20;;;23.88;;
43580;SDS011;29175;51.030;4.606;2023-04-29T07:52:59;65.93;;;24.13;;
43580;SDS011;29175;51.030;4.606;2023-04-29T07:55:26;59.42;;;22.15;;
43580;SDS011;29175;51.030;4.606;2023-04-29T07:57:54;58.58;;;23.13;;
43580;SDS011;29175;51.030;4.606;2023-04-29T08:00:20;61.85;;;23.40;;
43580;SDS011;29175;51.030;4.606;2023-04-29T08:02:50;56.78;;;21.70;;
43580;SDS011;29175;51.030;4.606;2023-04-29T08:05:16;59.72;;;22.88;;
43580;SDS011;29175;51.030;4.606;2023-04-29T08:07:43;56.20;;;22.60;;
43580;SDS011;29175;51.030;4.606;2023-04-29T08:10:09;61.42;;;22.95;;
43580;SDS011;29175;51.030;4.606;2023-04-29T08:12:34;57.60;;;22.10;;
43580;SDS011;29175;51.030;4.606;2023-04-29T08:15:00;57.20;;;22.95;;
43580;SDS011;29175;51.030;4.606;2023-04-29T08:17:26;58.78;;;22.15;;
43580;SDS011;29175;51.030;4.606;2023-04-29T08:19:51;57.65;;;21.00;;
43580;SDS011;29175;51.030;4.606;2023-04-29T08:22:17;46.30;;;19.95;;
43580;SDS011;29175;51.030;4.606;2023-04-29T08:24:43;46.53;;;18.60;;
43580;SDS011;29175;51.030;4.606;2023-04-29T08:27:09;48.70;;;18.88;;
43580;SDS011;29175;51.030;4.606;2023-04-29T08:29:35;51.30;;;18.30;;
43580;SDS011;29175;51.030;4.606;2023-04-29T08:32:01;52.83;;;19.88;;
43580;SDS011;29175;51.030;4.606;2023-04-29T08:34:27;47.15;;;17.63;;
43580;SDS011;29175;51.030;4.606;2023-04-29T08:36:53;54.17;;;20.05;;
43580;SDS011;29175;51.030;4.606;2023-04-29T08:39:18;47.15;;;18.42;;
43580;SDS011;29175;51.030;4.606;2023-04-29T08:41:44;45.55;;;18.02;;
43580;SDS011;29175;51.030;4.606;2023-04-29T08:44:15;43.22;;;17.95;;
43580;SDS011;29175;51.030;4.606;2023-04-29T08:46:42;47.95;;;17.05;;
43580;SDS011;29175;51.030;4.606;2023-04-29T08:49:10;40.58;;;17.88;;
43580;SDS011;29175;51.030;4.606;2023-04-29T08:51:37;41.78;;;17.33;;
43580;SDS011;29175;51.030;4.606;2023-04-29T08:54:03;44.33;;;16.75;;
43580;SDS011;29175;51.030;4.606;2023-04-29T08:56:29;43.65;;;17.73;;
43580;SDS011;29175;51.030;4.606;2023-04-29T08:58:56;45.50;;;16.55;;
43580;SDS011;29175;51.030;4.606;2023-04-29T09:01:24;45.22;;;17.33;;
43580;SDS011;29175;51.030;4.606;2023-04-29T09:06:34;41.85;;;17.13;;
43580;SDS011;29175;51.030;4.606;2023-04-29T09:09:00;46.20;;;17.63;;
43580;SDS011;29175;51.030;4.606;2023-04-29T09:11:28;46.30;;;19.00;;
43580;SDS011;29175;51.030;4.606;2023-04-29T09:13:59;43.22;;;18.08;;
43580;SDS011;29175;51.030;4.606;2023-04-29T09:16:26;51.10;;;17.60;;
43580;SDS011;29175;51.030;4.606;2023-04-29T09:18:55;42.33;;;16.27;;
43580;SDS011;29175;51.030;4.606;2023-04-29T09:21:22;39.10;;;17.23;;
43580;SDS011;29175;51.030;4.606;2023-04-29T09:23:59;39.05;;;16.50;;
43580;SDS011;29175;51.030;4.606;2023-04-29T09:26:25;43.83;;;16.42;;
43580;SDS011;29175;51.030;4.606;2023-04-29T09:29:09;39.38;;;16.05;;
43580;SDS011;29175;51.030;4.606;2023-04-29T09:31:39;37.03;;;15.32;;
43580;SDS011;29175;51.030;4.606;2023-04-29T09:34:05;35.63;;;15.40;;
43580;SDS011;29175;51.030;4.606;2023-04-29T09:36:34;37.60;;;14.20;;
43580;SDS011;29175;51.030;4.606;2023-04-29T09:39:05;37.42;;;15.93;;
43580;SDS011;29175;51.030;4.606;2023-04-29T09:41:55;38.33;;;14.73;;
43580;SDS011;29175;51.030;4.606;2023-04-29T09:44:30;29.70;;;14.65;;
43580;SDS011;29175;51.030;4.606;2023-04-29T09:47:00;32.78;;;14.65;;
43580;SDS011;29175;51.030;4.606;2023-04-29T09:49:32;31.67;;;13.65;;
43580;SDS011;29175;51.030;4.606;2023-04-29T09:52:10;34.03;;;14.27;;
43580;SDS011;29175;51.030;4.606;2023-04-29T09:54:38;32.88;;;13.90;;
43580;SDS011;29175;51.030;4.606;2023-04-29T09:57:05;27.33;;;12.82;;
43580;SDS011;29175;51.030;4.606;2023-04-29T09:59:33;40.05;;;15.18;;
43580;SDS011;29175;51.030;4.606;2023-04-29T10:02:00;29.08;;;12.82;;
43580;SDS011;29175;51.030;4.606;2023-04-29T10:04:33;24.70;;;11.90;;
43580;SDS011;29175;51.030;4.606;2023-04-29T10:06:59;28.55;;;12.38;;
43580;SDS011;29175;51.030;4.606;2023-04-29T10:09:26;27.35;;;13.25;;
43580;SDS011;29175;51.030;4.606;2023-04-29T10:11:53;28.38;;;13.10;;
43580;SDS011;29175;51.030;4.606;2023-04-29T10:14:23;29.55;;;12.77;;
43580;SDS011;29175;51.030;4.606;2023-04-29T10:19:40;32.80;;;13.68;;
43580;SDS011;29175;51.030;4.606;2023-04-29T10:22:26;28.38;;;13.07;;
43580;SDS011;29175;51.030;4.606;2023-04-29T10:24:56;26.45;;;13.02;;
43580;SDS011;29175;51.030;4.606;2023-04-29T10:27:25;27.25;;;12.98;;
43580;SDS011;29175;51.030;4.606;2023-04-29T10:29:53;28.85;;;13.00;;
43580;SDS011;29175;51.030;4.606;2023-04-29T10:32:20;35.72;;;14.05;;
43580;SDS011;29175;51.030;4.606;2023-04-29T10:34:47;28.23;;;13.25;;
43580;SDS011;29175;51.030;4.606;2023-04-29T10:37:16;31.90;;;12.90;;
43580;SDS011;29175;51.030;4.606;2023-04-29T10:39:44;29.13;;;12.35;;
43580;SDS011;29175;51.030;4.606;2023-04-29T10:42:32;27.60;;;13.38;;
43580;SDS011;29175;51.030;4.606;2023-04-29T10:45:23;24.30;;;12.27;;
43580;SDS011;29175;51.030;4.606;2023-04-29T10:51:17;23.60;;;12.32;;
43580;SDS011;29175;51.030;4.606;2023-04-29T10:53:21;27.42;;;11.93;;
43580;SDS011;29175;51.030;4.606;2023-04-29T10:55:48;27.90;;;12.20;;
43580;SDS011;29175;51.030;4.606;2023-04-29T11:00:59;28.50;;;12.82;;
43580;SDS011;29175;51.030;4.606;2023-04-29T11:06:19;28.20;;;11.95;;
43580;SDS011;29175;51.030;4.606;2023-04-29T11:09:08;27.95;;;12.35;;
43580;SDS011;29175;51.030;4.606;2023-04-29T11:17:09;29.27;;;13.50;;
43580;SDS011;29175;51.030;4.606;2023-04-29T11:19:41;24.85;;;11.60;;
43580;SDS011;29175;51.030;4.606;2023-04-29T11:22:13;21.42;;;11.07;;
43580;SDS011;29175;51.030;4.606;2023-04-29T11:24:49;23.90;;;11.35;;
43580;SDS011;29175;51.030;4.606;2023-04-29T11:27:18;27.58;;;11.80;;
43580;SDS011;29175;51.030;4.606;2023-04-29T11:29:45;22.77;;;12.25;;
43580;SDS011;29175;51.030;4.606;2023-04-29T11:32:14;25.02;;;12.07;;
43580;SDS011;29175;51.030;4.606;2023-04-29T11:34:40;25.42;;;11.88;;
43580;SDS011;29175;51.030;4.606;2023-04-29T11:37:05;24.30;;;12.15;;
43580;SDS011;29175;51.030;4.606;2023-04-29T11:39:34;26.90;;;12.05;;
43580;SDS011;29175;51.030;4.606;2023-04-29T11:42:07;26.80;;;12.55;;
43580;SDS011;29175;51.030;4.606;2023-04-29T11:44:36;23.73;;;11.85;;
43580;SDS011;29175;51.030;4.606;2023-04-29T11:47:02;26.17;;;12.88;;
43580;SDS011;29175;51.030;4.606;2023-04-29T11:49:32;26.55;;;11.75;;
43580;SDS011;29175;51.030;4.606;2023-04-29T11:51:59;31.23;;;12.65;;
43580;SDS011;29175;51.030;4.606;2023-04-29T11:54:25;24.67;;;12.93;;
43580;SDS011;29175;51.030;4.606;2023-04-29T11:56:52;27.25;;;13.02;;
43580;SDS011;29175;51.030;4.606;2023-04-29T11:59:19;26.83;;;12.15;;
43580;SDS011;29175;51.030;4.606;2023-04-29T12:01:48;25.50;;;11.93;;
43580;SDS011;29175;51.030;4.606;2023-04-29T12:04:14;26.73;;;12.15;;
43580;SDS011;29175;51.030;4.606;2023-04-29T12:06:40;26.88;;;11.95;;
43580;SDS011;29175;51.030;4.606;2023-04-29T12:09:06;22.67;;;11.52;;
43580;SDS011;29175;51.030;4.606;2023-04-29T12:11:32;28.23;;;12.82;;
43580;SDS011;29175;51.030;4.606;2023-04-29T12:13:59;27.10;;;11.60;;
43580;SDS011;29175;51.030;4.606;2023-04-29T12:16:27;22.20;;;11.73;;
43580;SDS011;29175;51.030;4.606;2023-04-29T12:18:54;28.38;;;11.60;;
43580;SDS011;29175;51.030;4.606;2023-04-29T12:21:20;26.08;;;12.05;;
43580;SDS011;29175;51.030;4.606;2023-04-29T12:23:47;25.50;;;11.10;;
43580;SDS011;29175;51.030;4.606;2023-04-29T12:26:13;25.00;;;10.93;;
43580;SDS011;29175;51.030;4.606;2023-04-29T12:28:42;24.92;;;11.15;;
43580;SDS011;29175;51.030;4.606;2023-04-29T12:31:08;28.88;;;11.43;;
43580;SDS011;29175;51.030;4.606;2023-04-29T12:33:35;20.50;;;10.35;;
43580;SDS011;29175;51.030;4.606;2023-04-29T12:36:01;25.73;;;11.18;;
43580;SDS011;29175;51.030;4.606;2023-04-29T12:38:30;22.55;;;10.95;;
43580;SDS011;29175;51.030;4.606;2023-04-29T12:40:59;21.90;;;10.40;;
43580;SDS011;29175;51.030;4.606;2023-04-29T12:43:29;20.80;;;10.10;;
43580;SDS011;29175;51.030;4.606;2023-04-29T12:46:14;21.77;;;11.07;;
43580;SDS011;29175;51.030;4.606;2023-04-29T12:48:40;24.52;;;11.27;;
43580;SDS011;29175;51.030;4.606;2023-04-29T12:51:10;26.75;;;12.38;;
43580;SDS011;29175;51.030;4.606;2023-04-29T12:53:35;18.67;;;9.75;;
43580;SDS011;29175;51.030;4.606;2023-04-29T12:56:01;20.05;;;10.13;;
43580;SDS011;29175;51.030;4.606;2023-04-29T12:58:28;24.38;;;10.13;;
43580;SDS011;29175;51.030;4.606;2023-04-29T13:00:57;19.48;;;10.30;;
43580;SDS011;29175;51.030;4.606;2023-04-29T13:03:22;21.80;;;10.13;;
43580;SDS011;29175;51.030;4.606;2023-04-29T13:05:48;23.88;;;11.20;;
43580;SDS011;29175;51.030;4.606;2023-04-29T13:08:16;25.02;;;11.68;;
43580;SDS011;29175;51.030;4.606;2023-04-29T13:10:43;19.63;;;9.88;;
43580;SDS011;29175;51.030;4.606;2023-04-29T13:13:08;22.25;;;10.32;;
43580;SDS011;29175;51.030;4.606;2023-04-29T13:15:34;21.98;;;10.13;;
43580;SDS011;29175;51.030;4.606;2023-04-29T13:18:03;25.40;;;10.68;;
43580;SDS011;29175;51.030;4.606;2023-04-29T13:20:29;26.10;;;10.98;;
43580;SDS011;29175;51.030;4.606;2023-04-29T13:22:57;21.33;;;10.25;;
43580;SDS011;29175;51.030;4.606;2023-04-29T13:25:22;22.27;;;11.27;;
43580;SDS011;29175;51.030;4.606;2023-04-29T13:27:48;24.38;;;10.95;;
43580;SDS011;29175;51.030;4.606;2023-04-29T13:30:14;26.80;;;11.20;;
43580;SDS011;29175;51.030;4.606;2023-04-29T13:32:40;23.98;;;10.13;;
43580;SDS011;29175;51.030;4.606;2023-04-29T13:35:06;28.70;;;10.65;;
43580;SDS011;29175;51.030;4.606;2023-04-29T13:37:33;19.23;;;9.50;;
43580;SDS011;29175;51.030;4.606;2023-04-29T13:39:58;21.67;;;10.73;;
43580;SDS011;29175;51.030;4.606;2023-04-29T13:42:24;23.10;;;10.02;;
43580;SDS011;29175;51.030;4.606;2023-04-29T13:44:50;26.38;;;11.05;;
43580;SDS011;29175;51.030;4.606;2023-04-29T13:47:17;19.90;;;10.52;;
43580;SDS011;29175;51.030;4.606;2023-04-29T13:49:43;19.23;;;10.07;;
43580;SDS011;29175;51.030;4.606;2023-04-29T13:52:09;18.13;;;9.30;;
43580;SDS011;29175;51.030;4.606;2023-04-29T13:54:35;18.48;;;9.23;;
43580;SDS011;29175;51.030;4.606;2023-04-29T13:57:02;19.75;;;9.57;;
43580;SDS011;29175;51.030;4.606;2023-04-29T13:59:29;16.90;;;8.43;;
43580;SDS011;29175;51.030;4.606;2023-04-29T14:01:59;16.75;;;8.75;;
43580;SDS011;29175;51.030;4.606;2023-04-29T14:04:25;16.83;;;8.20;;
43580;SDS011;29175;51.030;4.606;2023-04-29T14:06:52;18.75;;;9.07;;
43580;SDS011;29175;51.030;4.606;2023-04-29T14:09:18;17.70;;;8.85;;
43580;SDS011;29175;51.030;4.606;2023-04-29T14:11:45;21.33;;;9.23;;
43580;SDS011;29175;51.030;4.606;2023-04-29T14:14:12;16.50;;;8.65;;
43580;SDS011;29175;51.030;4.606;2023-04-29T14:16:38;19.00;;;9.27;;
43580;SDS011;29175;51.030;4.606;2023-04-29T14:19:03;19.98;;;9.18;;
43580;SDS011;29175;51.030;4.606;2023-04-29T14:21:30;19.20;;;9.18;;
43580;SDS011;29175;51.030;4.606;2023-04-29T14:23:57;23.35;;;10.00;;
43580;SDS011;29175;51.030;4.606;2023-04-29T14:26:24;21.00;;;9.93;;
43580;SDS011;29175;51.030;4.606;2023-04-29T14:28:53;18.70;;;8.85;;
43580;SDS011;29175;51.030;4.606;2023-04-29T14:31:22;19.08;;;9.00;;
43580;SDS011;29175;51.030;4.606;2023-04-29T14:33:52;17.23;;;8.95;;
43580;SDS011;29175;51.030;4.606;2023-04-29T14:36:18;16.50;;;8.45;;
43580;SDS011;29175;51.030;4.606;2023-04-29T14:38:44;19.40;;;9.07;;
43580;SDS011;29175;51.030;4.606;2023-04-29T14:41:10;17.42;;;8.73;;
43580;SDS011;29175;51.030;4.606;2023-04-29T14:43:35;16.45;;;8.88;;
43580;SDS011;29175;51.030;4.606;2023-04-29T14:46:01;19.48;;;8.93;;
43580;SDS011;29175;51.030;4.606;2023-04-29T14:48:27;17.15;;;8.68;;
43580;SDS011;29175;51.030;4.606;2023-04-29T14:50:53;21.35;;;9.38;;